createdAt,value
2022-08-11T00:02:27.299Z,101483.34
2022-08-11T00:04:57.051Z,101491.03
2022-08-11T00:07:26.737Z,101482.28
2022-08-11T00:09:57.047Z,101476.19
2022-08-11T00:12:25.367Z,101473.16
2022-08-11T00:14:58.404Z,101470.16
2022-08-11T00:17:29.836Z,101479.00
2022-08-11T00:20:13.824Z,101474.25
2022-08-11T00:22:46.633Z,101478.59
2022-08-11T00:25:18.178Z,101476.28
2022-08-11T00:27:47.982Z,101483.03
2022-08-11T00:30:17.005Z,101474.03
2022-08-11T00:32:47.208Z,101477.44
2022-08-11T00:35:51.650Z,101482.22
2022-08-11T00:38:08.403Z,101485.75
2022-08-11T00:40:45.277Z,101479.69
2022-08-11T00:43:24.867Z,101478.28
2022-08-11T00:46:19.221Z,101476.81
2022-08-11T00:48:58.991Z,101476.06
2022-08-11T00:52:02.082Z,101475.44
2022-08-11T00:55:10.105Z,101477.69
2022-08-11T00:58:21.853Z,101485.34
2022-08-11T01:01:10.343Z,101479.56
2022-08-11T01:04:08.772Z,101485.63
2022-08-11T01:06:55.228Z,101478.59
2022-08-11T01:09:32.900Z,101482.50
2022-08-11T01:12:22.909Z,101482.75
2022-08-11T01:15:29.200Z,101490.59
2022-08-11T01:18:46.176Z,101485.31
2022-08-11T01:22:05.981Z,101493.88
2022-08-11T01:25:09.374Z,101489.28
2022-08-11T01:28:06.897Z,101493.03
2022-08-11T01:31:15.929Z,101490.38
2022-08-11T01:34:23.520Z,101482.81
2022-08-11T01:37:07.828Z,101488.38
2022-08-11T01:40:26.874Z,101491.41
2022-08-11T01:43:49.670Z,101493.53
2022-08-11T01:46:23.776Z,101494.81
2022-08-11T01:50:06.778Z,101491.75
2022-08-11T01:52:16.268Z,101489.75
2022-08-11T01:54:49.193Z,101488.34
2022-08-11T01:57:35.456Z,101491.91
2022-08-11T02:00:09.956Z,101489.31
2022-08-11T02:02:53.923Z,101490.28
2022-08-11T02:05:30.303Z,101497.50
2022-08-11T02:08:09.846Z,101487.13
2022-08-11T02:11:04.694Z,101494.97
2022-08-11T02:13:44.733Z,101495.09
2022-08-11T02:16:20.819Z,101497.63
2022-08-11T02:19:11.675Z,101497.69
2022-08-11T02:22:04.233Z,101495.41
2022-08-11T02:24:42.449Z,101492.81
2022-08-11T02:27:17.314Z,101499.03
2022-08-11T02:29:52.785Z,101496.44
2022-08-11T02:32:42.458Z,101496.63
2022-08-11T02:35:19.978Z,101497.09
2022-08-11T02:37:59.228Z,101505.31
2022-08-11T02:40:37.204Z,101495.91
2022-08-11T02:43:19.953Z,101500.13
2022-08-11T02:45:55.561Z,101495.81
2022-08-11T02:48:52.317Z,101500.38
2022-08-11T02:51:28.729Z,101491.66
2022-08-11T02:54:08.396Z,101491.66
2022-08-11T02:56:46.923Z,101495.38
2022-08-11T02:59:43.766Z,101501.16
2022-08-11T03:02:18.673Z,101491.69
2022-08-11T03:04:56.452Z,101498.16
2022-08-11T03:07:29.693Z,101505.25
2022-08-11T03:10:10.965Z,101499.94
2022-08-11T03:13:05.707Z,101495.38
2022-08-11T03:16:01.176Z,101492.75
2022-08-11T03:18:34.193Z,101485.59
2022-08-11T03:21:10.241Z,101488.25
2022-08-11T03:23:48.851Z,101495.28
2022-08-11T03:26:24.213Z,101491.66
2022-08-11T03:29:01.130Z,101485.06
2022-08-11T03:31:33.443Z,101483.66
2022-08-11T03:34:07.239Z,101490.72
2022-08-11T03:37:16.746Z,101488.28
2022-08-11T03:39:56.568Z,101488.47
2022-08-11T03:42:33.360Z,101489.34
2022-08-11T03:45:16.560Z,101483.00
2022-08-11T03:48:05.793Z,101483.97
2022-08-11T03:50:55.159Z,101492.88
2022-08-11T03:53:41.900Z,101487.47
2022-08-11T03:56:54.255Z,101492.66
2022-08-11T04:00:02.774Z,101489.22
2022-08-11T04:03:31.398Z,101490.19
2022-08-11T04:06:36.729Z,101494.63
2022-08-11T04:09:40.411Z,101494.84
2022-08-11T04:12:36.107Z,101497.78
2022-08-11T04:16:11.363Z,101498.69
2022-08-11T04:19:19.022Z,101494.28
2022-08-11T04:22:20.498Z,101499.63
2022-08-11T04:25:51.153Z,101496.78
2022-08-11T04:28:56.749Z,101495.56
2022-08-11T04:31:52.042Z,101493.81
2022-08-11T04:34:46.209Z,101491.34
2022-08-11T04:37:51.370Z,101503.16
2022-08-11T04:40:57.334Z,101497.75
2022-08-11T04:44:02.864Z,101503.72
2022-08-11T04:47:12.026Z,101504.09
2022-08-11T04:50:17.261Z,101512.69
2022-08-11T04:53:44.871Z,101516.75
2022-08-11T04:56:41.482Z,101516.38
2022-08-11T04:59:59.373Z,101523.78
2022-08-11T05:03:07.065Z,101513.69
2022-08-11T05:06:03.780Z,101521.03
2022-08-11T05:08:54.371Z,101523.56
2022-08-11T05:12:02.278Z,101522.50
2022-08-11T05:14:53.444Z,101514.97
2022-08-11T05:17:55.548Z,101512.19
2022-08-11T05:20:44.289Z,101515.50
2022-08-11T05:23:47.694Z,101509.44
2022-08-11T05:26:46.698Z,101514.00
2022-08-11T05:29:47.309Z,101526.94
2022-08-11T05:32:36.043Z,101527.69
2022-08-11T05:35:07.431Z,101528.84
2022-08-11T05:37:57.236Z,101528.44
2022-08-11T05:40:51.143Z,101533.00
2022-08-11T05:44:19.891Z,101525.97
2022-08-11T05:46:47.056Z,101535.16
2022-08-11T05:49:32.909Z,101535.19
2022-08-11T05:52:19.365Z,101525.91
2022-08-11T05:55:07.595Z,101535.19
2022-08-11T05:57:50.166Z,101540.22
2022-08-11T06:00:20.457Z,101537.69
2022-08-11T06:02:55.298Z,101542.09
2022-08-11T06:05:37.176Z,101537.53
2022-08-11T06:08:13.909Z,101540.28
2022-08-11T06:10:43.767Z,101540.75
2022-08-11T06:13:18.069Z,101539.94
2022-08-11T06:15:47.661Z,101538.53
2022-08-11T06:18:16.498Z,101542.47
2022-08-11T06:20:48.801Z,101537.03
2022-08-11T06:23:20.415Z,101537.72
2022-08-11T06:25:49.442Z,101532.41
2022-08-11T06:28:22.572Z,101533.88
2022-08-11T06:30:51.445Z,101540.00
2022-08-11T06:33:30.612Z,101537.78
2022-08-11T06:36:05.269Z,101543.06
2022-08-11T06:38:47.922Z,101535.91
2022-08-11T06:41:33.160Z,101536.00
2022-08-11T06:44:16.260Z,101532.84
2022-08-11T06:46:47.656Z,101534.97
2022-08-11T06:49:34.828Z,101537.16
2022-08-11T06:52:05.191Z,101531.88
2022-08-11T06:54:37.168Z,101536.81
2022-08-11T06:57:31.920Z,101535.38
2022-08-11T07:00:29.103Z,101539.41
2022-08-11T07:03:01.824Z,101536.00
2022-08-11T07:05:43.790Z,101535.78
2022-08-11T07:08:56.989Z,101529.53
2022-08-11T07:12:18.037Z,101541.31
2022-08-11T07:15:10.085Z,101531.19
2022-08-11T07:17:49.829Z,101538.34
2022-08-11T07:20:37.281Z,101536.13
2022-08-11T07:23:28.170Z,101533.59
2022-08-11T07:26:18.071Z,101532.34
2022-08-11T07:28:59.219Z,101537.41
2022-08-11T07:31:34.107Z,101533.03
2022-08-11T07:34:17.934Z,101534.66
2022-08-11T07:36:49.169Z,101522.84
2022-08-11T07:39:22.551Z,101531.00
2022-08-11T07:41:54.267Z,101523.94
2022-08-11T07:44:29.408Z,101522.72
2022-08-11T07:47:18.833Z,101525.31
2022-08-11T07:50:08.737Z,101521.59
2022-08-11T07:52:40.498Z,101520.38
2022-08-11T07:55:13.067Z,101522.00
2022-08-11T07:58:16.678Z,101523.91
2022-08-11T08:01:10.124Z,101524.50
2022-08-11T08:03:58.172Z,101519.19
2022-08-11T08:06:46.270Z,101515.25
2022-08-11T08:09:35.497Z,101525.31
2022-08-11T08:12:22.353Z,101520.13
2022-08-11T08:15:08.440Z,101530.28
2022-08-11T08:18:09.397Z,101529.41
2022-08-11T08:20:49.726Z,101524.72
2022-08-11T08:23:33.078Z,101527.81
2022-08-11T08:26:01.846Z,101526.69
2022-08-11T08:28:32.593Z,101525.13
2022-08-11T08:31:00.893Z,101529.25
2022-08-11T08:33:31.399Z,101533.50
2022-08-11T08:36:12.710Z,101528.19
2022-08-11T08:38:44.250Z,101529.09
2022-08-11T08:41:16.611Z,101523.94
2022-08-11T08:43:49.783Z,101524.84
2022-08-11T08:46:21.755Z,101531.31
2022-08-11T08:48:52.143Z,101525.88
2022-08-11T08:51:58.772Z,101521.72
2022-08-11T08:54:31.642Z,101526.41
2022-08-11T08:57:05.230Z,101521.13
2022-08-11T08:59:47.617Z,101515.41
2022-08-11T09:02:20.546Z,101525.19
2022-08-11T09:05:03.713Z,101525.28
2022-08-11T09:07:39.454Z,101517.19
2022-08-11T09:10:11.878Z,101522.88
2022-08-11T09:12:42.562Z,101522.28
2022-08-11T09:15:12.925Z,101519.16
2022-08-11T09:17:45.049Z,101518.50
2022-08-11T09:20:18.530Z,101519.56
2022-08-11T09:26:15.896Z,101526.75
2022-08-11T09:28:45.168Z,101518.72
2022-08-11T09:31:14.354Z,101524.19
2022-08-11T09:33:43.855Z,101520.84
2022-08-11T09:36:31.596Z,101515.91
2022-08-11T09:39:18.545Z,101517.19
2022-08-11T09:42:00.302Z,101511.78
2022-08-11T09:44:48.924Z,101497.38
2022-08-11T09:47:24.245Z,101506.47
2022-08-11T09:49:54.759Z,101508.03
2022-08-11T09:52:24.357Z,101506.56
2022-08-11T09:54:53.473Z,101501.91
2022-08-11T09:57:41.525Z,101502.56
2022-08-11T10:00:13.438Z,101493.78
2022-08-11T10:02:44.633Z,101497.94
2022-08-11T10:05:29.884Z,101496.41
2022-08-11T10:07:58.178Z,101484.97
2022-08-11T10:10:26.649Z,101479.25
2022-08-11T10:13:01.593Z,101487.94
2022-08-11T10:15:39.873Z,101474.13
2022-08-11T10:18:49.107Z,101461.19
2022-08-11T10:21:28.153Z,101465.13
2022-08-11T10:24:14.632Z,101463.31
2022-08-11T10:27:00.020Z,101475.78
2022-08-11T10:29:51.194Z,101471.59
2022-08-11T10:32:58.101Z,101462.25
2022-08-11T10:35:29.185Z,101461.91
2022-08-11T10:38:05.848Z,101446.50
2022-08-11T10:40:39.931Z,101445.75
2022-08-11T10:43:13.375Z,101441.00
2022-08-11T10:46:05.098Z,101451.81
2022-08-11T10:48:40.161Z,101453.13
2022-08-11T10:51:13.862Z,101444.84
2022-08-11T10:54:01.947Z,101441.97
2022-08-11T10:56:49.399Z,101446.88
2022-08-11T10:59:18.199Z,101437.56
2022-08-11T11:01:47.965Z,101427.56
2022-08-11T11:04:18.014Z,101420.09
2022-08-11T11:06:54.536Z,101418.19
2022-08-11T11:09:29.866Z,101417.03
2022-08-11T11:12:19.180Z,101407.19
2022-08-11T11:15:06.979Z,101411.09
2022-08-11T11:17:56.970Z,101407.94
2022-08-11T11:20:35.791Z,101408.19
2022-08-11T11:23:10.347Z,101401.88
2022-08-11T11:26:07.384Z,101403.03
2022-08-11T11:29:08.043Z,101394.00
2022-08-11T11:31:50.254Z,101398.59
2022-08-11T11:34:37.889Z,101394.78
2022-08-11T11:37:21.961Z,101394.03
2022-08-11T11:39:50.143Z,101386.22
2022-08-11T11:42:19.661Z,101382.59
2022-08-11T11:44:48.861Z,101373.28
2022-08-11T11:47:18.194Z,101373.81
2022-08-11T11:49:49.602Z,101368.00
2022-08-11T11:52:20.156Z,101376.88
2022-08-11T11:54:50.193Z,101372.00
2022-08-11T11:57:37.177Z,101371.91
2022-08-11T12:00:33.363Z,101365.94
2022-08-11T12:03:05.047Z,101370.22
2022-08-11T12:05:36.194Z,101370.53
2022-08-11T12:08:14.417Z,101366.66
2022-08-11T12:10:46.477Z,101356.63
2022-08-11T12:13:33.997Z,101338.56
2022-08-11T12:16:32.392Z,101338.16
2022-08-11T12:18:54.051Z,101347.41
2022-08-11T12:21:25.183Z,101340.06
2022-08-11T12:24:10.930Z,101328.94
2022-08-11T12:27:14.782Z,101333.47
2022-08-11T12:29:43.936Z,101326.13
2022-08-11T12:32:13.029Z,101316.69
2022-08-11T12:34:41.212Z,101328.50
2022-08-11T12:37:13.757Z,101328.03
2022-08-11T12:40:16.729Z,101312.91
2022-08-11T12:43:22.133Z,101309.41
2022-08-11T12:45:58.727Z,101307.84
2022-08-11T12:49:00.436Z,101307.47
2022-08-11T12:52:10.933Z,101315.78
2022-08-11T12:54:51.430Z,101303.31
2022-08-11T12:57:44.237Z,101305.13
2022-08-11T13:00:30.459Z,101294.97
2022-08-11T13:03:17.292Z,101295.38
2022-08-11T13:05:49.535Z,101299.47
2022-08-11T13:08:18.872Z,101290.97
2022-08-11T13:11:08.864Z,101294.06
2022-08-11T13:13:54.542Z,101285.09
2022-08-11T13:16:27.538Z,101293.53
2022-08-11T13:18:56.481Z,101283.41
2022-08-11T13:21:24.894Z,101288.28
2022-08-11T13:23:59.853Z,101288.28
2022-08-11T13:26:47.305Z,101267.19
2022-08-11T13:29:20.236Z,101277.56
2022-08-11T13:31:49.221Z,101273.94
2022-08-11T13:34:17.832Z,101264.44
2022-08-11T13:36:46.571Z,101261.66
2022-08-11T13:39:15.313Z,101272.28
2022-08-11T13:41:47.727Z,101269.06
2022-08-11T13:44:24.760Z,101265.09
2022-08-11T13:46:55.200Z,101255.03
2022-08-11T13:49:24.306Z,101253.84
2022-08-11T13:51:53.570Z,101248.38
2022-08-11T13:54:24.851Z,101246.84
2022-08-11T13:56:57.097Z,101257.56
2022-08-11T13:59:30.850Z,101242.44
2022-08-11T14:02:22.126Z,101244.97
2022-08-11T14:04:58.398Z,101255.94
2022-08-11T14:07:35.843Z,101238.00
2022-08-11T14:10:05.460Z,101235.44
2022-08-11T14:12:54.537Z,101229.09
2022-08-11T14:15:25.035Z,101227.59
2022-08-11T14:17:57.312Z,101216.19
2022-08-11T14:20:45.456Z,101217.66
2022-08-11T14:23:15.483Z,101209.84
2022-08-11T14:26:04.719Z,101211.47
2022-08-11T14:28:41.703Z,101203.19
2022-08-11T14:31:14.135Z,101204.16
2022-08-11T14:34:00.884Z,101198.38
2022-08-11T14:36:35.547Z,101201.97
2022-08-11T14:39:08.007Z,101201.59
2022-08-11T14:42:07.515Z,101184.31
2022-08-11T14:45:03.123Z,101196.50
2022-08-11T14:47:33.892Z,101186.91
2022-08-11T14:50:11.422Z,101191.53
2022-08-11T14:52:45.778Z,101186.91
2022-08-11T14:55:33.057Z,101183.88
2022-08-11T14:58:02.808Z,101181.84
2022-08-11T15:00:34.144Z,101181.88
2022-08-11T15:03:12.432Z,101176.00
2022-08-11T15:05:56.107Z,101187.94
2022-08-11T15:08:47.845Z,101181.22
2022-08-11T15:11:36.739Z,101174.94
2022-08-11T15:14:07.108Z,101167.53
2022-08-11T15:16:56.008Z,101179.84
2022-08-11T15:19:36.761Z,101169.59
2022-08-11T15:22:28.296Z,101167.59
2022-08-11T15:24:58.207Z,101167.97
2022-08-11T15:27:48.516Z,101171.41
2022-08-11T15:30:35.518Z,101157.84
2022-08-11T15:33:25.451Z,101165.78
2022-08-11T15:36:13.009Z,101148.00
2022-08-11T15:38:45.416Z,101154.03
2022-08-11T15:41:35.895Z,101156.56
2022-08-11T15:44:51.220Z,101140.41
2022-08-11T15:47:16.590Z,101138.78
2022-08-11T15:50:10.953Z,101136.66
2022-08-11T15:52:44.788Z,101140.94
2022-08-11T15:55:12.797Z,101134.66
2022-08-11T15:58:00.382Z,101130.28
2022-08-11T16:00:47.215Z,101135.97
2022-08-11T16:04:06.465Z,101130.75
2022-08-11T16:06:24.038Z,101121.84
2022-08-11T16:08:56.361Z,101129.09
2022-08-11T16:11:25.805Z,101125.06
2022-08-11T16:14:12.058Z,101113.44
2022-08-11T16:16:41.153Z,101109.47
2022-08-11T16:19:10.888Z,101109.09
2022-08-11T16:21:43.063Z,101105.03
2022-08-11T16:27:03.404Z,101098.09
2022-08-11T16:27:13.154Z,101106.06
2022-08-11T16:29:45.700Z,101102.66
2022-08-11T16:32:21.775Z,101099.78
2022-08-11T16:35:14.314Z,101104.13
2022-08-11T16:38:02.908Z,101096.53
2022-08-11T16:40:33.547Z,101103.44
2022-08-11T16:43:22.277Z,101095.25
2022-08-11T16:46:08.172Z,101087.75
2022-08-11T16:48:41.198Z,101108.38
2022-08-11T16:51:12.198Z,101094.53
2022-08-11T16:54:00.027Z,101091.22
2022-08-11T16:56:36.389Z,101087.56
2022-08-11T16:59:15.225Z,101086.13
2022-08-11T17:01:45.847Z,101081.75
2022-08-11T17:04:39.622Z,101085.88
2022-08-11T17:07:41.623Z,101085.94
2022-08-11T17:10:51.328Z,101084.63
2022-08-11T17:13:27.180Z,101080.69
2022-08-11T17:16:08.797Z,101085.56
2022-08-11T17:18:44.123Z,101078.84
2022-08-11T17:21:21.601Z,101078.53
2022-08-11T17:23:54.953Z,101081.94
2022-08-11T17:26:49.211Z,101077.56
2022-08-11T17:29:19.674Z,101070.16
2022-08-11T17:32:06.824Z,101074.69
2022-08-11T17:34:52.934Z,101071.97
2022-08-11T17:37:22.773Z,101070.59
2022-08-11T17:39:52.857Z,101076.00
2022-08-11T17:42:42.029Z,101075.59
2022-08-11T17:45:29.836Z,101071.34
2022-08-11T17:48:15.942Z,101082.91
2022-08-11T17:50:44.712Z,101075.13
2022-08-11T17:53:32.017Z,101082.56
2022-08-11T17:56:29.989Z,101076.41
2022-08-11T17:59:19.305Z,101075.56
2022-08-11T18:01:49.811Z,101074.72
2022-08-11T18:04:22.219Z,101071.91
2022-08-11T18:06:51.660Z,101076.47
2022-08-11T18:09:39.331Z,101076.59
2022-08-11T18:18:59.731Z,101087.91
2022-08-11T18:22:03.518Z,101084.66
2022-08-11T18:24:58.047Z,101090.38
2022-08-11T18:27:46.461Z,101088.97
2022-08-11T18:30:32.146Z,101091.41
2022-08-11T18:36:31.207Z,101093.44
2022-08-11T18:39:18.310Z,101103.78
2022-08-11T18:42:06.462Z,101094.84
2022-08-11T18:44:55.114Z,101093.44
2022-08-11T18:47:42.894Z,101102.09
2022-08-11T18:50:38.476Z,101098.97
2022-08-11T18:53:29.168Z,101097.25
2022-08-11T18:56:16.809Z,101106.28
2022-08-11T18:59:05.770Z,101103.72
2022-08-11T19:01:53.551Z,101104.91
2022-08-11T19:04:40.314Z,101109.88
2022-08-11T19:07:27.755Z,101109.94
2022-08-11T19:10:15.694Z,101111.31
2022-08-11T19:13:03.681Z,101114.28
2022-08-11T19:15:50.382Z,101126.06
2022-08-11T19:18:39.298Z,101127.56
2022-08-11T19:21:26.891Z,101137.59
2022-08-11T19:24:17.298Z,101141.09
2022-08-11T19:27:04.635Z,101138.22
2022-08-11T19:30:07.991Z,101137.03
2022-08-11T19:33:00.151Z,101145.94
2022-08-11T19:35:47.295Z,101144.56
2022-08-11T19:38:33.568Z,101152.16
2022-08-11T19:41:56.866Z,101154.34
2022-08-11T19:44:27.057Z,101149.09
2022-08-11T19:47:13.461Z,101153.88
2022-08-11T19:50:02.219Z,101159.50
2022-08-11T19:52:49.373Z,101152.34
2022-08-11T19:55:36.094Z,101155.03
2022-08-11T19:58:23.233Z,101155.66
2022-08-11T20:01:10.389Z,101159.81
2022-08-11T20:03:55.590Z,101155.34
2022-08-11T20:06:42.600Z,101160.38
2022-08-11T20:10:05.181Z,101151.31
2022-08-11T20:12:36.473Z,101157.56
2022-08-11T20:15:24.439Z,101157.81
2022-08-11T20:18:11.967Z,101159.16
2022-08-11T20:20:58.595Z,101164.13
2022-08-11T20:23:45.226Z,101165.22
2022-08-11T20:26:31.706Z,101164.84
2022-08-11T20:29:19.220Z,101171.16
2022-08-11T20:32:06.598Z,101173.13
2022-08-11T20:34:58.206Z,101166.66
2022-08-11T20:37:50.212Z,101172.03
2022-08-11T20:40:39.904Z,101173.94
2022-08-11T20:44:07.019Z,101172.44
2022-08-11T20:46:38.746Z,101168.50
2022-08-11T20:49:40.921Z,101175.22
2022-08-11T20:52:37.646Z,101171.72
2022-08-11T20:55:26.052Z,101170.38
2022-08-11T20:58:47.003Z,101169.19
2022-08-11T21:01:41.220Z,101176.47
2022-08-11T21:04:27.936Z,101185.84
2022-08-11T21:07:18.586Z,101182.97
2022-08-11T21:10:23.243Z,101184.56
2022-08-11T21:13:18.018Z,101190.28
2022-08-11T21:16:25.454Z,101189.78
2022-08-11T21:19:19.133Z,101186.56
2022-08-11T21:22:28.020Z,101180.16
2022-08-11T21:25:17.676Z,101185.75
2022-08-11T21:28:07.822Z,101180.59
2022-08-11T21:30:57.443Z,101188.44
2022-08-11T21:33:46.150Z,101183.75
2022-08-11T21:36:33.311Z,101185.25
2022-08-11T21:39:20.741Z,101180.13
2022-08-11T21:42:13.105Z,101187.19
2022-08-11T21:44:59.695Z,101179.47
2022-08-11T21:47:45.805Z,101182.38
2022-08-11T21:50:31.649Z,101181.50
2022-08-11T21:53:18.892Z,101184.06
2022-08-11T21:56:05.093Z,101182.78
2022-08-11T21:58:53.207Z,101188.03
2022-08-11T22:01:39.368Z,101187.91
2022-08-11T22:04:25.497Z,101187.69
2022-08-11T22:07:11.888Z,101189.72
2022-08-11T22:09:57.256Z,101185.59
2022-08-11T22:12:45.129Z,101187.94
2022-08-11T22:15:32.510Z,101187.84
2022-08-11T22:18:20.263Z,101188.19
2022-08-11T22:21:06.517Z,101191.56
2022-08-11T22:23:56.543Z,101188.53
2022-08-11T22:26:42.726Z,101184.53
2022-08-11T22:29:50.793Z,101182.56
2022-08-11T22:32:39.995Z,101192.78
2022-08-11T22:35:29.285Z,101193.44
2022-08-11T22:38:16.193Z,101193.28
2022-08-11T22:41:01.400Z,101190.16
2022-08-11T22:43:46.579Z,101204.31
2022-08-11T22:46:34.327Z,101191.09
2022-08-11T22:49:22.045Z,101184.81
2022-08-11T22:52:08.954Z,101190.88
2022-08-11T22:54:55.884Z,101192.78
2022-08-11T22:58:00.969Z,101191.19
2022-08-11T23:00:46.976Z,101189.00
2022-08-11T23:03:37.782Z,101190.03
2022-08-11T23:06:26.244Z,101193.75
2022-08-11T23:09:12.937Z,101194.44
2022-08-11T23:12:06.782Z,101197.94
2022-08-11T23:14:57.101Z,101202.03
2022-08-11T23:17:43.966Z,101195.91
2022-08-11T23:20:42.889Z,101198.59
2022-08-11T23:23:38.037Z,101201.31
2022-08-11T23:26:24.533Z,101192.97
2022-08-11T23:29:12.069Z,101194.00
2022-08-11T23:31:57.877Z,101197.53
2022-08-11T23:35:04.702Z,101195.81
2022-08-11T23:37:54.877Z,101189.59
2022-08-11T23:40:42.146Z,101191.72
2022-08-11T23:43:37.401Z,101197.22
2022-08-11T23:46:24.389Z,101191.38
2022-08-11T23:49:15.144Z,101200.59
2022-08-11T23:52:01.155Z,101193.22
2022-08-11T23:54:47.937Z,101186.84
2022-08-11T23:57:35.304Z,101192.53
